Temp: 6.2°C   Baro: 993.5mb
  Wind: 0.0mph   Dir: WNW (296°)
  Rain: 0.2mm (0.0mm/hr)
  Solar: 265W/m2  Hum: 89%
 
Bath Spa Weather Station Historical Data
Daily Summary for January 7, 2020 Units:  Both    English   Metric
Daily Weekly Monthly Yearly Custom
  High: Low: Average:
Temperature: 55.3 °F /  12.9 °C °F /  -17.8 °C 52 °F /  11.1 °C
Dew Point: 53.6 °F /  12 °C °F /  -17.8 °C 49.8 °F /  9.9 °C
Humidity: 94% % 92%
Wind Speed: 11.4mph /  18.3km/h - 5.5mph /  8.9km/h
Wind Gust: 21mph /  33.8km/h - -
Wind- - SW
Pressure: 30.23 in /  1023.6 hPa 0.00 in /  0 hPa -
Precipitation: 0.01 in /  0.25 mm    
Historical Graphs
 
 
Tabular Data for January 7, 2020
Time Temperature Dew Point Pressure Wind Wind Speed Wind Gust Humidity Rainfall Rate (Hourly) solar
00:04 44.3 °F /  6.8 °C 42.3 °F /  5.7 °C 30.23in /  1023.6hPa East 2.2mph /  3.5km/h 3mph /  4.8km/h 93% 0.00in /  0mm 0 W/m2
00:09 44.2 °F /  6.8 °C 42.3 °F /  5.7 °C 30.22in /  1023.2hPa East 1.2mph /  1.9km/h 3mph /  4.8km/h 93% 0.00in /  0mm 0 W/m2
00:14 44.1 °F /  6.7 °C 42.2 °F /  5.7 °C 30.23in /  1023.6hPa East 1.3mph /  2.1km/h 3mph /  4.8km/h 93% 0.00in /  0mm 0 W/m2
00:19 44 °F /  6.7 °C 42 °F /  5.6 °C 30.23in /  1023.6hPa East 1.6mph /  2.6km/h 3mph /  4.8km/h 93% 0.00in /  0mm 0 W/m2
00:24 43.9 °F /  6.6 °C 42.1 °F /  5.6 °C 30.23in /  1023.6hPa East 1.5mph /  2.4km/h 3mph /  4.8km/h 93.5% 0.00in /  0mm 0 W/m2
00:29 43.9 °F /  6.6 °C 42.3 °F /  5.7 °C 30.23in /  1023.6hPa East 0.6mph /  1km/h 3mph /  4.8km/h 94% 0.00in /  0mm 0 W/m2
00:34 43.9 °F /  6.6 °C 42.3 °F /  5.7 °C 30.22in /  1023.2hPa Calm   1mph /  1.6km/h 94% 0.00in /  0mm 0 W/m2
00:39 43.9 °F /  6.6 °C 42.3 °F /  5.7 °C 30.22in /  1023.2hPa East 0.9mph /  1.4km/h 2mph /  3.2km/h 94% 0.00in /  0mm 0 W/m2
00:44 43.8 °F /  6.6 °C 42.2 °F /  5.7 °C 30.22in /  1023.2hPa East 2mph /  3.2km/h 3mph /  4.8km/h 94% 0.00in /  0mm 0 W/m2
00:49 43.5 °F /  6.4 °C 41.9 °F /  5.5 °C 30.22in /  1023.2hPa East 0.9mph /  1.4km/h 2mph /  3.2km/h 94% 0.00in /  0mm 0 W/m2
00:54 43.5 °F /  6.4 °C 41.9 °F /  5.5 °C 30.22in /  1023.2hPa East 0.7mph /  1.1km/h 2mph /  3.2km/h 94% 0.00in /  0mm 0 W/m2
00:59 43.4 °F /  6.3 °C 41.8 °F /  5.4 °C 30.23in /  1023.6hPa East 2.6mph /  4.2km/h 3mph /  4.8km/h 94% 0.00in /  0mm 0 W/m2
01:04 43.3 °F /  6.3 °C 41.6 °F /  5.3 °C 30.23in /  1023.6hPa East 0.7mph /  1.1km/h 3mph /  4.8km/h 94% 0.00in /  0mm 0 W/m2
01:09 43.2 °F /  6.2 °C 41.5 °F /  5.3 °C 30.23in /  1023.6hPa East 1.5mph /  2.4km/h 3mph /  4.8km/h 94% 0.00in /  0mm 0 W/m2
01:14 43 °F /  6.1 °C 41.4 °F /  5.2 °C 30.23in /  1023.6hPa East 0.2mph /  0.3km/h 3mph /  4.8km/h 94% 0.00in /  0mm 0 W/m2
01:19 42.8 °F /  6 °C 41.2 °F /  5.1 °C 30.23in /  1023.6hPa East 1.4mph /  2.3km/h 3mph /  4.8km/h 94% 0.00in /  0mm 0 W/m2
01:24 42.9 °F /  6.1 °C 41.3 °F /  5.2 °C 30.23in /  1023.6hPa East 1.1mph /  1.8km/h 3mph /  4.8km/h 94% 0.00in /  0mm 0 W/m2
01:29 43.2 °F /  6.2 °C 41.5 °F /  5.3 °C 30.23in /  1023.6hPa East 0.4mph /  0.6km/h 2mph /  3.2km/h 94% 0.00in /  0mm 0 W/m2
01:34 43 °F /  6.1 °C 41.4 °F /  5.2 °C 30.23in /  1023.6hPa East 0.9mph /  1.4km/h 2mph /  3.2km/h 94% 0.00in /  0mm 0 W/m2
01:39 43 °F /  6.1 °C 41.4 °F /  5.2 °C 30.23in /  1023.6hPa ENE 2.2mph /  3.5km/h 4mph /  6.4km/h 94% 0.00in /  0mm 0 W/m2
01:44 43.1 °F /  6.2 °C 41.4 °F /  5.2 °C 30.23in /  1023.6hPa NW 1.4mph /  2.3km/h 4mph /  6.4km/h 94% 0.00in /  0mm 0 W/m2
01:49 43 °F /  6.1 °C 41.4 °F /  5.2 °C 30.23in /  1023.6hPa WNW 2mph /  3.2km/h 4mph /  6.4km/h 94% 0.00in /  0mm 0 W/m2
01:53 43 °F /  6.1 °C 41.4 °F /  5.2 °C 30.23in /  1023.6hPa NW 1.7mph /  2.7km/h 3mph /  4.8km/h 94% 0.00in /  0mm 0 W/m2
06:40 °F /  -17.8 °C °F /  -17.8 °C 0.00in /  0hPa Calm     % 0.00in /  0mm W/m2
07:14 47.8 °F /  8.8 °C 45.3 °F /  7.4 °C 30.20in /  1022.6hPa SW 4.6mph /  7.4km/h 8mph /  12.9km/h 91.2% 0.00in /  0mm 0 W/m2
07:19 47.9 °F /  8.8 °C 45.4 °F /  7.4 °C 30.19in /  1022.2hPa SW 3.8mph /  6.1km/h 8mph /  12.9km/h 91% 0.00in /  0mm 0 W/m2
07:24 48 °F /  8.9 °C 45.5 °F /  7.5 °C 30.19in /  1022.2hPa South 2.1mph /  3.4km/h 8mph /  12.9km/h 91% 0.00in /  0mm 0 W/m2
07:29 48 °F /  8.9 °C 45.5 °F /  7.5 °C 30.19in /  1022.2hPa SW 0.8mph /  1.3km/h 7mph /  11.3km/h 91% 0.00in /  0mm 0 W/m2
07:34 48 °F /  8.9 °C 45.5 °F /  7.5 °C 30.19in /  1022.2hPa WSW 2.2mph /  3.5km/h 6mph /  9.7km/h 91% 0.00in /  0mm 0 W/m2
07:39 48.1 °F /  8.9 °C 45.6 °F /  7.6 °C 30.19in /  1022.2hPa SW 5mph /  8km/h 10mph /  16.1km/h 91% 0.00in /  0mm 0 W/m2
07:44 48.2 °F /  9 °C 45.7 °F /  7.6 °C 30.19in /  1022.2hPa WSW 4mph /  6.4km/h 9mph /  14.5km/h 91% 0.00in /  0mm 0 W/m2
07:49 48.3 °F /  9.1 °C 45.8 °F /  7.7 °C 30.19in /  1022.2hPa SSW 4mph /  6.4km/h 9mph /  14.5km/h 91% 0.00in /  0mm 0 W/m2
07:54 48.5 °F /  9.2 °C 45.8 °F /  7.7 °C 30.19in /  1022.2hPa SW 3.3mph /  5.3km/h 10mph /  16.1km/h 90.6% 0.00in /  0mm 0 W/m2
07:59 48.6 °F /  9.2 °C 45.7 °F /  7.6 °C 30.19in /  1022.2hPa WSW 4.1mph /  6.6km/h 9mph /  14.5km/h 90% 0.00in /  0mm 0 W/m2
08:04 48.6 °F /  9.2 °C 45.7 °F /  7.6 °C 30.19in /  1022.2hPa SSW 5.1mph /  8.2km/h 9mph /  14.5km/h 90% 0.00in /  0mm 0 W/m2
08:09 48.7 °F /  9.3 °C 45.9 °F /  7.7 °C 30.19in /  1022.2hPa SW 6mph /  9.7km/h 10mph /  16.1km/h 90% 0.00in /  0mm 7 W/m2
08:14 48.7 °F /  9.3 °C 45.9 °F /  7.7 °C 30.19in /  1022.2hPa SW 6mph /  9.7km/h 11mph /  17.7km/h 90% 0.00in /  0mm 5 W/m2
08:19 48.8 °F /  9.3 °C 45.9 °F /  7.7 °C 30.19in /  1022.2hPa SSW 6.7mph /  10.8km/h 14mph /  22.5km/h 89.4% 0.00in /  0mm 7 W/m2
08:24 48.9 °F /  9.4 °C 45.9 °F /  7.7 °C 30.19in /  1022.2hPa SW 5.2mph /  8.4km/h 10mph /  16.1km/h 89% 0.00in /  0mm 7 W/m2
08:29 48.9 °F /  9.4 °C 45.9 °F /  7.7 °C 30.19in /  1022.2hPa WSW 3.7mph /  6km/h 8mph /  12.9km/h 89% 0.00in /  0mm 11 W/m2
08:34 48.9 °F /  9.4 °C 45.9 °F /  7.7 °C 30.19in /  1022.2hPa SW 2.5mph /  4km/h 8mph /  12.9km/h 89% 0.00in /  0mm 16 W/m2
08:39 48.9 °F /  9.4 °C 45.9 °F /  7.7 °C 30.20in /  1022.6hPa WNW 4.2mph /  6.8km/h 7mph /  11.3km/h 89% 0.00in /  0mm 19 W/m2
08:44 48.9 °F /  9.4 °C 45.9 °F /  7.7 °C 30.20in /  1022.6hPa WNW 2.8mph /  4.5km/h 6mph /  9.7km/h 89% 0.00in /  0mm 23 W/m2
08:49 48.9 °F /  9.4 °C 45.9 °F /  7.7 °C 30.20in /  1022.6hPa WSW 1.4mph /  2.3km/h 5mph /  8km/h 89% 0.00in /  0mm 28 W/m2
08:54 49.1 °F /  9.5 °C 46 °F /  7.8 °C 30.20in /  1022.6hPa SSW 2.4mph /  3.9km/h 6mph /  9.7km/h 89% 0.00in /  0mm 39 W/m2
08:59 49.4 °F /  9.7 °C 46.3 °F /  7.9 °C 30.20in /  1022.6hPa SW 3.2mph /  5.1km/h 9mph /  14.5km/h 89% 0.00in /  0mm 49 W/m2
09:04 49.5 °F /  9.7 °C 46.4 °F /  8 °C 30.20in /  1022.6hPa SSW 2.9mph /  4.7km/h 8mph /  12.9km/h 89% 0.00in /  0mm 56 W/m2
09:09 49.6 °F /  9.8 °C 46.6 °F /  8.1 °C 30.20in /  1022.6hPa SSW 2.4mph /  3.9km/h 6mph /  9.7km/h 89% 0.00in /  0mm 65 W/m2
09:14 49.7 °F /  9.8 °C 46.7 °F /  8.2 °C 30.20in /  1022.6hPa South 4.4mph /  7.1km/h 8mph /  12.9km/h 89% 0.00in /  0mm 67 W/m2
09:19 49.8 °F /  9.9 °C 46.8 °F /  8.2 °C 30.20in /  1022.6hPa SSW 3mph /  4.8km/h 6mph /  9.7km/h 89% 0.00in /  0mm 67 W/m2
09:24 49.8 °F /  9.9 °C 46.8 °F /  8.2 °C 30.20in /  1022.6hPa SSW 3.5mph /  5.6km/h 8mph /  12.9km/h 89% 0.00in /  0mm 62 W/m2
09:29 50.1 °F /  10.1 °C 47 °F /  8.3 °C 30.19in /  1022.2hPa SW 3.3mph /  5.3km/h 9mph /  14.5km/h 89% 0.00in /  0mm 46 W/m2
09:34 50.2 °F /  10.1 °C 47.1 °F /  8.4 °C 30.19in /  1022.2hPa SW 3.7mph /  6km/h 7mph /  11.3km/h 89% 0.00in /  0mm 46 W/m2
09:39 50.3 °F /  10.2 °C 47.2 °F /  8.4 °C 30.19in /  1022.2hPa SW 4.3mph /  6.9km/h 8mph /  12.9km/h 89% 0.00in /  0mm 39 W/m2
09:44 50.4 °F /  10.2 °C 47.3 °F /  8.5 °C 30.19in /  1022.2hPa SW 4.4mph /  7.1km/h 8mph /  12.9km/h 89% 0.00in /  0mm 35 W/m2
09:49 50.5 °F /  10.3 °C 47.5 °F /  8.6 °C 30.19in /  1022.2hPa SW 3.3mph /  5.3km/h 6mph /  9.7km/h 89% 0.00in /  0mm 39 W/m2
09:54 50.5 °F /  10.3 °C 47.5 °F /  8.6 °C 30.19in /  1022.2hPa WSW 4.3mph /  6.9km/h 12mph /  19.3km/h 89% 0.00in /  0mm 53 W/m2
09:59 50.7 °F /  10.4 °C 47.7 °F /  8.7 °C 30.19in /  1022.2hPa SW 4mph /  6.4km/h 12mph /  19.3km/h 89% 0.00in /  0mm 56 W/m2
10:04 50.7 °F /  10.4 °C 47.7 °F /  8.7 °C 30.19in /  1022.2hPa WSW 6.2mph /  10km/h 10mph /  16.1km/h 89% 0.00in /  0mm 58 W/m2
10:09 50.8 °F /  10.4 °C 47.8 °F /  8.8 °C 30.19in /  1022.2hPa WSW 4.9mph /  7.9km/h 11mph /  17.7km/h 89% 0.00in /  0mm 58 W/m2
10:14 51.1 °F /  10.6 °C 48 °F /  8.9 °C 30.19in /  1022.2hPa SW 5.1mph /  8.2km/h 14mph /  22.5km/h 89% 0.00in /  0mm 54 W/m2
10:19 51.1 °F /  10.6 °C 48 °F /  8.9 °C 30.19in /  1022.2hPa SW 6.2mph /  10km/h 14mph /  22.5km/h 89% 0.00in /  0mm 70 W/m2
10:24 51.2 °F /  10.7 °C 48.1 °F /  8.9 °C 30.19in /  1022.2hPa SW 5.2mph /  8.4km/h 11mph /  17.7km/h 89% 0.00in /  0mm 81 W/m2
10:28 51.3 °F /  10.7 °C 48.2 °F /  9 °C 30.19in /  1022.2hPa SSW 4.7mph /  7.6km/h 11mph /  17.7km/h 89% 0.00in /  0mm 107 W/m2
10:34 51.4 °F /  10.8 °C 48.3 °F /  9.1 °C 30.19in /  1022.2hPa SW 5.6mph /  9km/h 11mph /  17.7km/h 88.8% 0.00in /  0mm 137 W/m2
10:39 51.6 °F /  10.9 °C 48.3 °F /  9.1 °C 30.18in /  1021.9hPa SSW 5.6mph /  9km/h 12mph /  19.3km/h 88.4% 0.00in /  0mm 200 W/m2
10:44 51.8 °F /  11 °C 48.6 °F /  9.2 °C 30.18in /  1021.9hPa SSW 5.6mph /  9km/h 13mph /  20.9km/h 88.6% 0.00in /  0mm 214 W/m2
10:49 52.1 °F /  11.2 °C 48.7 °F /  9.3 °C 30.18in /  1021.9hPa SSW 10.4mph /  16.7km/h 18mph /  29km/h 88% 0.00in /  0mm 197 W/m2
10:54 52.2 °F /  11.2 °C 48.7 °F /  9.3 °C 30.17in /  1021.6hPa SSW 10mph /  16.1km/h 20mph /  32.2km/h 88% 0.01in /  0.25mm 197 W/m2
10:59 52.2 °F /  11.2 °C 48.7 °F /  9.3 °C 30.17in /  1021.6hPa WSW 10.8mph /  17.4km/h 16mph /  25.7km/h 88% 0.01in /  0.25mm 188 W/m2
11:04 52.2 °F /  11.2 °C 48.7 °F /  9.3 °C 30.17in /  1021.6hPa SSW 8.6mph /  13.8km/h 18mph /  29km/h 88% 0.01in /  0.25mm 176 W/m2
11:09 52.2 °F /  11.2 °C 48.7 °F /  9.3 °C 30.17in /  1021.6hPa SSW 9.4mph /  15.1km/h 17mph /  27.4km/h 88% 0.01in /  0.25mm 139 W/m2
11:14 52 °F /  11.1 °C 48.8 °F /  9.3 °C 30.17in /  1021.6hPa SSW 10.7mph /  17.2km/h 20mph /  32.2km/h 88.8% 0.01in /  0.25mm 88 W/m2
11:19 51.6 °F /  10.9 °C 48.6 °F /  9.2 °C 30.17in /  1021.6hPa SW 8.7mph /  14km/h 20mph /  32.2km/h 89% 0.01in /  0.25mm 83 W/m2
11:24 51.6 °F /  10.9 °C 48.7 °F /  9.3 °C 30.17in /  1021.6hPa SW 5.5mph /  8.9km/h 16mph /  25.7km/h 90% 0.01in /  0.25mm 72 W/m2
11:29 51.5 °F /  10.8 °C 48.7 °F /  9.3 °C 30.16in /  1021.2hPa SW 11.4mph /  18.3km/h 21mph /  33.8km/h 90% 0.01in /  0.25mm 76 W/m2
11:34 51.5 °F /  10.8 °C 48.7 °F /  9.3 °C 30.16in /  1021.2hPa SSW 6.4mph /  10.3km/h 16mph /  25.7km/h 90% 0.01in /  0.25mm 53 W/m2
11:39 51.6 °F /  10.9 °C 49.1 °F /  9.5 °C 30.16in /  1021.2hPa South 9.4mph /  15.1km/h 18mph /  29km/h 91% 0.01in /  0.25mm 53 W/m2
11:44 51.6 °F /  10.9 °C 49.1 °F /  9.5 °C 30.16in /  1021.2hPa SSW 8.2mph /  13.2km/h 19mph /  30.6km/h 91% 0.01in /  0.25mm 53 W/m2
11:49 51.6 °F /  10.9 °C 49.1 °F /  9.5 °C 30.16in /  1021.2hPa SSW 9.4mph /  15.1km/h 18mph /  29km/h 91% 0.01in /  0.25mm 65 W/m2
11:53 51.6 °F /  10.9 °C 49.1 °F /  9.5 °C 30.16in /  1021.2hPa SSW 6.6mph /  10.6km/h 18mph /  29km/h 91% 0.01in /  0.25mm 65 W/m2
11:59 51.6 °F /  10.9 °C 49.3 °F /  9.6 °C 30.16in /  1021.2hPa South 5.6mph /  9km/h 13mph /  20.9km/h 91.6% 0.00in /  0mm 58 W/m2
12:04 51.6 °F /  10.9 °C 49.5 °F /  9.7 °C 30.16in /  1021.2hPa SSW 6.7mph /  10.8km/h 15mph /  24.1km/h 92% 0.00in /  0mm 47 W/m2
12:09 51.6 °F /  10.9 °C 49.5 °F /  9.7 °C 30.16in /  1021.2hPa SSW 5.9mph /  9.5km/h 12mph /  19.3km/h 92% 0.00in /  0mm 54 W/m2
12:14 51.6 °F /  10.9 °C 49.5 °F /  9.7 °C 30.15in /  1020.9hPa SSW 3.6mph /  5.8km/h 9mph /  14.5km/h 92% 0.00in /  0mm 60 W/m2
12:19 51.7 °F /  10.9 °C 49.6 °F /  9.8 °C 30.15in /  1020.9hPa SSW 5.5mph /  8.9km/h 12mph /  19.3km/h 92% 0.00in /  0mm 67 W/m2
12:24 52 °F /  11.1 °C 49.6 °F /  9.8 °C 30.15in /  1020.9hPa SSW 4.5mph /  7.2km/h 14mph /  22.5km/h 92% 0.00in /  0mm 69 W/m2
12:29 52 °F /  11.1 °C 49.6 °F /  9.8 °C 30.15in /  1020.9hPa SSW 5.8mph /  9.3km/h 14mph /  22.5km/h 92% 0.00in /  0mm 46 W/m2
12:34 52.2 °F /  11.2 °C 50 °F /  10 °C 30.15in /  1020.9hPa SSW 7.4mph /  11.9km/h 17mph /  27.4km/h 92.4% 0.00in /  0mm 51 W/m2
12:39 52.2 °F /  11.2 °C 50.2 °F /  10.1 °C 30.14in /  1020.5hPa SSW 5.4mph /  8.7km/h 13mph /  20.9km/h 93% 0.00in /  0mm 51 W/m2
12:44 52.3 °F /  11.3 °C 50.4 °F /  10.2 °C 30.14in /  1020.5hPa South 5.1mph /  8.2km/h 9mph /  14.5km/h 93% 0.00in /  0mm 51 W/m2
12:49 52.3 °F /  11.3 °C 50.4 °F /  10.2 °C 30.14in /  1020.5hPa South 6.4mph /  10.3km/h 14mph /  22.5km/h 93% 0.00in /  0mm 56 W/m2
12:54 52.5 °F /  11.4 °C 50.5 °F /  10.3 °C 30.14in /  1020.5hPa SW 4.7mph /  7.6km/h 9mph /  14.5km/h 93% 0.00in /  0mm 54 W/m2
12:59 52.5 °F /  11.4 °C 50.5 °F /  10.3 °C 30.13in /  1020.2hPa South 6.4mph /  10.3km/h 13mph /  20.9km/h 93% 0.00in /  0mm 46 W/m2
13:04 52.9 °F /  11.6 °C 50.9 °F /  10.5 °C 30.13in /  1020.2hPa SSW 5.7mph /  9.2km/h 13mph /  20.9km/h 93% 0.00in /  0mm 33 W/m2
13:09 53 °F /  11.7 °C 51 °F /  10.6 °C 30.13in /  1020.2hPa SSW 5.4mph /  8.7km/h 10mph /  16.1km/h 93% 0.00in /  0mm 35 W/m2
13:14 53.1 °F /  11.7 °C 51.1 °F /  10.6 °C 30.12in /  1019.9hPa SW 5.5mph /  8.9km/h 12mph /  19.3km/h 93% 0.00in /  0mm 42 W/m2
13:19 53.2 °F /  11.8 °C 51.3 °F /  10.7 °C 30.12in /  1019.9hPa SW 6.4mph /  10.3km/h 13mph /  20.9km/h 93% 0.00in /  0mm 40 W/m2
13:24 53.4 °F /  11.9 °C 51.4 °F /  10.8 °C 30.12in /  1019.9hPa South 5.8mph /  9.3km/h 15mph /  24.1km/h 93% 0.00in /  0mm 39 W/m2
13:29 53.5 °F /  11.9 °C 51.5 °F /  10.8 °C 30.11in /  1019.5hPa SSW 6.7mph /  10.8km/h 13mph /  20.9km/h 93% 0.00in /  0mm 30 W/m2
13:34 53.8 °F /  12.1 °C 51.5 °F /  10.8 °C 30.11in /  1019.5hPa SSW 4.4mph /  7.1km/h 11mph /  17.7km/h 92.4% 0.00in /  0mm 28 W/m2
13:39 53.8 °F /  12.1 °C 51.4 °F /  10.8 °C 30.11in /  1019.5hPa SW 6.2mph /  10km/h 10mph /  16.1km/h 92% 0.00in /  0mm 28 W/m2
13:44 54 °F /  12.2 °C 52 °F /  11.1 °C 30.11in /  1019.5hPa SSW 5.5mph /  8.9km/h 13mph /  20.9km/h 93% 0.00in /  0mm 33 W/m2
13:49 54 °F /  12.2 °C 52 °F /  11.1 °C 30.10in /  1019.2hPa SW 8mph /  12.9km/h 17mph /  27.4km/h 93% 0.00in /  0mm 39 W/m2
13:54 54 °F /  12.2 °C 52 °F /  11.1 °C 30.10in /  1019.2hPa SW 9.7mph /  15.6km/h 18mph /  29km/h 93% 0.00in /  0mm 37 W/m2
13:59 54 °F /  12.2 °C 52 °F /  11.1 °C 30.10in /  1019.2hPa SW 8.8mph /  14.2km/h 17mph /  27.4km/h 93% 0.00in /  0mm 42 W/m2
14:04 54 °F /  12.2 °C 52 °F /  11.1 °C 30.09in /  1018.8hPa SW 9.4mph /  15.1km/h 18mph /  29km/h 93% 0.00in /  0mm 47 W/m2
14:09 54 °F /  12.2 °C 52 °F /  11.1 °C 30.09in /  1018.8hPa SSW 7.8mph /  12.6km/h 17mph /  27.4km/h 93% 0.00in /  0mm 56 W/m2
14:14 54 °F /  12.2 °C 52 °F /  11.1 °C 30.09in /  1018.8hPa SSW 6.7mph /  10.8km/h 19mph /  30.6km/h 93% 0.00in /  0mm 62 W/m2
14:18 54.1 °F /  12.3 °C 52.1 °F /  11.2 °C 30.08in /  1018.5hPa SSW 6.5mph /  10.5km/h 17mph /  27.4km/h 93% 0.00in /  0mm 69 W/m2
14:24 54.1 °F /  12.3 °C 52.2 °F /  11.2 °C 30.07in /  1018.2hPa SSW 7.1mph /  11.4km/h 18mph /  29km/h 93% 0.00in /  0mm 69 W/m2
14:29 54.1 °F /  12.3 °C 52.2 °F /  11.2 °C 30.07in /  1018.2hPa SW 7.8mph /  12.6km/h 18mph /  29km/h 93% 0.00in /  0mm 60 W/m2
14:34 54.2 °F /  12.3 °C 52.3 °F /  11.3 °C 30.07in /  1018.2hPa SSW 6.2mph /  10km/h 12mph /  19.3km/h 93% 0.00in /  0mm 56 W/m2
14:39 54.3 °F /  12.4 °C 52.3 °F /  11.3 °C 30.07in /  1018.2hPa WSW 7.4mph /  11.9km/h 16mph /  25.7km/h 93% 0.00in /  0mm 47 W/m2
14:44 54.4 °F /  12.4 °C 52.4 °F /  11.3 °C 30.07in /  1018.2hPa SW 7.8mph /  12.6km/h 18mph /  29km/h 93% 0.00in /  0mm 54 W/m2
14:49 54.5 °F /  12.5 °C 52.5 °F /  11.4 °C 30.06in /  1017.8hPa SW 9.9mph /  15.9km/h 14mph /  22.5km/h 93% 0.00in /  0mm 54 W/m2
14:54 54.6 °F /  12.6 °C 52.6 °F /  11.4 °C 30.06in /  1017.8hPa SW 6.3mph /  10.1km/h 17mph /  27.4km/h 93% 0.00in /  0mm 56 W/m2
14:59 54.7 °F /  12.6 °C 52.7 °F /  11.5 °C 30.06in /  1017.8hPa SW 7.1mph /  11.4km/h 17mph /  27.4km/h 93% 0.00in /  0mm 47 W/m2
15:04 54.9 °F /  12.7 °C 52.8 °F /  11.6 °C 30.06in /  1017.8hPa SW 5.2mph /  8.4km/h 12mph /  19.3km/h 92.8% 0.00in /  0mm 26 W/m2
15:09 54.9 °F /  12.7 °C 52.5 °F /  11.4 °C 30.06in /  1017.8hPa West 4.1mph /  6.6km/h 10mph /  16.1km/h 92% 0.00in /  0mm 26 W/m2
15:14 54.9 °F /  12.7 °C 52.5 °F /  11.4 °C 30.06in /  1017.8hPa SW 5.7mph /  9.2km/h 9mph /  14.5km/h 92% 0.00in /  0mm 25 W/m2
15:19 54.9 °F /  12.7 °C 52.5 °F /  11.4 °C 30.06in /  1017.8hPa SW 4.4mph /  7.1km/h 11mph /  17.7km/h 92% 0.00in /  0mm 23 W/m2
15:24 54.9 °F /  12.7 °C 52.5 °F /  11.4 °C 30.06in /  1017.8hPa SW 7.6mph /  12.2km/h 12mph /  19.3km/h 92% 0.00in /  0mm 16 W/m2
15:29 54.9 °F /  12.7 °C 52.5 °F /  11.4 °C 30.06in /  1017.8hPa SW 5.8mph /  9.3km/h 11mph /  17.7km/h 92% 0.00in /  0mm 12 W/m2
15:34 54.9 °F /  12.7 °C 52.5 °F /  11.4 °C 30.06in /  1017.8hPa SSW 6.6mph /  10.6km/h 15mph /  24.1km/h 92% 0.00in /  0mm 11 W/m2
15:39 54.8 °F /  12.7 °C 52.4 °F /  11.3 °C 30.06in /  1017.8hPa SW 6mph /  9.7km/h 11mph /  17.7km/h 92% 0.00in /  0mm 11 W/m2
15:44 54.9 °F /  12.7 °C 52.5 °F /  11.4 °C 30.06in /  1017.8hPa SSW 6mph /  9.7km/h 17mph /  27.4km/h 92% 0.00in /  0mm 11 W/m2
15:49 54.9 °F /  12.7 °C 52.5 °F /  11.4 °C 30.05in /  1017.5hPa SW 3.8mph /  6.1km/h 13mph /  20.9km/h 92% 0.00in /  0mm 9 W/m2
15:54 54.9 °F /  12.7 °C 52.5 °F /  11.4 °C 30.06in /  1017.8hPa SW 8mph /  12.9km/h 15mph /  24.1km/h 92% 0.00in /  0mm 7 W/m2
15:59 54.9 °F /  12.7 °C 52.5 °F /  11.4 °C 30.06in /  1017.8hPa SW 7.4mph /  11.9km/h 14mph /  22.5km/h 92% 0.00in /  0mm 0 W/m2
16:04 54.9 °F /  12.7 °C 52.5 °F /  11.4 °C 30.06in /  1017.8hPa SW 5.9mph /  9.5km/h 16mph /  25.7km/h 92% 0.00in /  0mm 0 W/m2
16:09 54.9 °F /  12.7 °C 52.5 °F /  11.4 °C 30.06in /  1017.8hPa SSW 3.6mph /  5.8km/h 9mph /  14.5km/h 92% 0.00in /  0mm 0 W/m2
16:14 54.9 °F /  12.7 °C 52.5 °F /  11.4 °C 30.06in /  1017.8hPa SSW 5.3mph /  8.5km/h 12mph /  19.3km/h 92% 0.00in /  0mm 0 W/m2
16:19 54.9 °F /  12.7 °C 52.5 °F /  11.4 °C 30.06in /  1017.8hPa SSW 7.4mph /  11.9km/h 13mph /  20.9km/h 92% 0.00in /  0mm 0 W/m2
16:24 54.9 °F /  12.7 °C 52.5 °F /  11.4 °C 30.06in /  1017.8hPa SSW 5.1mph /  8.2km/h 14mph /  22.5km/h 92% 0.00in /  0mm 0 W/m2
16:29 54.9 °F /  12.7 °C 52.5 °F /  11.4 °C 30.06in /  1017.8hPa WSW 5.4mph /  8.7km/h 11mph /  17.7km/h 92% 0.00in /  0mm 0 W/m2
16:34 55 °F /  12.8 °C 52.6 °F /  11.4 °C 30.07in /  1018.2hPa SW 8mph /  12.9km/h 18mph /  29km/h 92% 0.00in /  0mm 0 W/m2
16:39 55 °F /  12.8 °C 52.7 °F /  11.5 °C 30.07in /  1018.2hPa WSW 6.4mph /  10.3km/h 11mph /  17.7km/h 92% 0.00in /  0mm 0 W/m2
16:44 55 °F /  12.8 °C 52.7 °F /  11.5 °C 30.07in /  1018.2hPa WSW 9.2mph /  14.8km/h 15mph /  24.1km/h 92% 0.00in /  0mm 0 W/m2
16:49 55 °F /  12.8 °C 52.7 °F /  11.5 °C 30.07in /  1018.2hPa WSW 7.6mph /  12.2km/h 15mph /  24.1km/h 92% 0.00in /  0mm 0 W/m2
16:54 55.1 °F /  12.8 °C 52.8 °F /  11.6 °C 30.07in /  1018.2hPa WSW 4.8mph /  7.7km/h 15mph /  24.1km/h 92% 0.00in /  0mm 0 W/m2
16:59 55 °F /  12.8 °C 52.7 °F /  11.5 °C 30.07in /  1018.2hPa SW 6.5mph /  10.5km/h 10mph /  16.1km/h 92% 0.00in /  0mm 0 W/m2
17:04 55 °F /  12.8 °C 52.6 °F /  11.4 °C 30.07in /  1018.2hPa SSW 6.6mph /  10.6km/h 13mph /  20.9km/h 92% 0.00in /  0mm 0 W/m2
17:09 54.9 °F /  12.7 °C 52.7 °F /  11.5 °C 30.07in /  1018.2hPa SW 6.6mph /  10.6km/h 14mph /  22.5km/h 92.6% 0.00in /  0mm 0 W/m2
17:14 54.9 °F /  12.7 °C 52.9 °F /  11.6 °C 30.06in /  1017.8hPa SW 8.6mph /  13.8km/h 15mph /  24.1km/h 93% 0.00in /  0mm 0 W/m2
17:19 54.7 °F /  12.6 °C 52.7 °F /  11.5 °C 30.06in /  1017.8hPa SW 6.4mph /  10.3km/h 14mph /  22.5km/h 93% 0.00in /  0mm 0 W/m2
17:24 54.7 °F /  12.6 °C 52.7 °F /  11.5 °C 30.06in /  1017.8hPa SW 6.4mph /  10.3km/h 11mph /  17.7km/h 93% 0.00in /  0mm 0 W/m2
17:29 54.7 °F /  12.6 °C 52.7 °F /  11.5 °C 30.05in /  1017.5hPa SSW 7mph /  11.3km/h 15mph /  24.1km/h 93% 0.00in /  0mm 0 W/m2
17:34 54.7 °F /  12.6 °C 52.7 °F /  11.5 °C 30.05in /  1017.5hPa SW 9.8mph /  15.8km/h 17mph /  27.4km/h 93% 0.00in /  0mm 0 W/m2
17:39 54.8 °F /  12.7 °C 52.8 °F /  11.6 °C 30.05in /  1017.5hPa SSW 7.4mph /  11.9km/h 15mph /  24.1km/h 93% 0.00in /  0mm 0 W/m2
17:44 54.8 °F /  12.7 °C 52.8 °F /  11.6 °C 30.05in /  1017.5hPa SW 7.8mph /  12.6km/h 12mph /  19.3km/h 93% 0.00in /  0mm 0 W/m2
17:49 54.8 °F /  12.7 °C 52.8 °F /  11.6 °C 30.05in /  1017.5hPa SW 8.5mph /  13.7km/h 13mph /  20.9km/h 93% 0.00in /  0mm 0 W/m2
17:54 54.7 °F /  12.6 °C 52.7 °F /  11.5 °C 30.04in /  1017.2hPa SW 7.2mph /  11.6km/h 14mph /  22.5km/h 93% 0.00in /  0mm 0 W/m2
17:59 54.8 °F /  12.7 °C 52.8 °F /  11.6 °C 30.04in /  1017.2hPa SSW 10.5mph /  16.9km/h 19mph /  30.6km/h 93% 0.00in /  0mm 0 W/m2
18:04 54.9 °F /  12.7 °C 52.9 °F /  11.6 °C 30.04in /  1017.2hPa SW 9.6mph /  15.4km/h 16mph /  25.7km/h 93% 0.00in /  0mm 0 W/m2
18:09 54.9 °F /  12.7 °C 52.9 °F /  11.6 °C 30.05in /  1017.5hPa SW 8.7mph /  14km/h 13mph /  20.9km/h 93% 0.00in /  0mm 0 W/m2
18:14 54.9 °F /  12.7 °C 53 °F /  11.7 °C 30.05in /  1017.5hPa SW 7.2mph /  11.6km/h 14mph /  22.5km/h 93.2% 0.00in /  0mm 0 W/m2
18:19 54.9 °F /  12.7 °C 53.1 °F /  11.7 °C 30.04in /  1017.2hPa SW 6.5mph /  10.5km/h 13mph /  20.9km/h 93.6% 0.00in /  0mm 0 W/m2
18:24 54.9 °F /  12.7 °C 53.1 °F /  11.7 °C 30.05in /  1017.5hPa SW 4.8mph /  7.7km/h 13mph /  20.9km/h 93.5% 0.00in /  0mm 0 W/m2
18:29 54.9 °F /  12.7 °C 53 °F /  11.7 °C 30.05in /  1017.5hPa SW 6.4mph /  10.3km/h 9mph /  14.5km/h 93.4% 0.00in /  0mm 0 W/m2
18:34 54.9 °F /  12.7 °C 53.1 °F /  11.7 °C 30.05in /  1017.5hPa SW 6.9mph /  11.1km/h 14mph /  22.5km/h 93.8% 0.00in /  0mm 0 W/m2
18:39 54.9 °F /  12.7 °C 53.2 °F /  11.8 °C 30.05in /  1017.5hPa SW 7.8mph /  12.6km/h 15mph /  24.1km/h 94% 0.00in /  0mm 0 W/m2
18:44 54.9 °F /  12.7 °C 53.2 °F /  11.8 °C 30.04in /  1017.2hPa SW 4.4mph /  7.1km/h 11mph /  17.7km/h 94% 0.00in /  0mm 0 W/m2
18:49 54.9 °F /  12.7 °C 53 °F /  11.7 °C 30.04in /  1017.2hPa WSW 4.8mph /  7.7km/h 9mph /  14.5km/h 93.4% 0.00in /  0mm 0 W/m2
18:51 54.9 °F /  12.7 °C 53.2 °F /  11.8 °C 30.04in /  1017.2hPa SW 4mph /  6.4km/h 9mph /  14.5km/h 94% 0.00in /  0mm 0 W/m2
19:04 54.9 °F /  12.7 °C 53.2 °F /  11.8 °C 30.05in /  1017.5hPa WSW 5.5mph /  8.9km/h 9mph /  14.5km/h 94% 0.00in /  0mm 0 W/m2
19:09 54.9 °F /  12.7 °C 53.2 °F /  11.8 °C 30.05in /  1017.5hPa SW 5.6mph /  9km/h 13mph /  20.9km/h 94% 0.00in /  0mm 0 W/m2
19:14 54.9 °F /  12.7 °C 53.2 °F /  11.8 °C 30.05in /  1017.5hPa SW 5.4mph /  8.7km/h 12mph /  19.3km/h 94% 0.00in /  0mm 0 W/m2
19:19 54.9 °F /  12.7 °C 53.2 °F /  11.8 °C 30.05in /  1017.5hPa SSW 5mph /  8km/h 11mph /  17.7km/h 94% 0.00in /  0mm 0 W/m2
19:24 54.9 °F /  12.7 °C 53.2 °F /  11.8 °C 30.05in /  1017.5hPa SW 5.2mph /  8.4km/h 10mph /  16.1km/h 94% 0.00in /  0mm 0 W/m2
19:29 54.9 °F /  12.7 °C 53.2 °F /  11.8 °C 30.05in /  1017.5hPa WSW 6.4mph /  10.3km/h 11mph /  17.7km/h 94% 0.00in /  0mm 0 W/m2
19:34 54.9 °F /  12.7 °C 53.2 °F /  11.8 °C 30.05in /  1017.5hPa SW 5.7mph /  9.2km/h 9mph /  14.5km/h 94% 0.00in /  0mm 0 W/m2
19:39 54.9 °F /  12.7 °C 53.2 °F /  11.8 °C 30.05in /  1017.5hPa SW 5.6mph /  9km/h 13mph /  20.9km/h 94% 0.00in /  0mm 0 W/m2
19:44 54.9 °F /  12.7 °C 53.2 °F /  11.8 °C 30.05in /  1017.5hPa SW 5.4mph /  8.7km/h 13mph /  20.9km/h 94% 0.00in /  0mm 0 W/m2
19:49 54.9 °F /  12.7 °C 53.2 °F /  11.8 °C 30.05in /  1017.5hPa SW 5mph /  8km/h 11mph /  17.7km/h 94% 0.00in /  0mm 0 W/m2
19:54 54.9 °F /  12.7 °C 53.2 °F /  11.8 °C 30.05in /  1017.5hPa SW 6.5mph /  10.5km/h 11mph /  17.7km/h 94% 0.00in /  0mm 0 W/m2
19:58 54.9 °F /  12.7 °C 53.2 °F /  11.8 °C 30.04in /  1017.2hPa SW 5.5mph /  8.9km/h 10mph /  16.1km/h 94% 0.00in /  0mm 0 W/m2
20:04 54.9 °F /  12.7 °C 53.2 °F /  11.8 °C 30.04in /  1017.2hPa WSW 6.4mph /  10.3km/h 10mph /  16.1km/h 94% 0.00in /  0mm 0 W/m2
20:09 54.9 °F /  12.7 °C 53.2 °F /  11.8 °C 30.05in /  1017.5hPa West 4.4mph /  7.1km/h 12mph /  19.3km/h 94% 0.00in /  0mm 0 W/m2
20:14 54.9 °F /  12.7 °C 53.2 °F /  11.8 °C 30.05in /  1017.5hPa WSW 3.9mph /  6.3km/h 9mph /  14.5km/h 94% 0.00in /  0mm 0 W/m2
20:19 54.9 °F /  12.7 °C 53.2 °F /  11.8 °C 30.05in /  1017.5hPa WSW 4.4mph /  7.1km/h 10mph /  16.1km/h 94% 0.00in /  0mm 0 W/m2
20:23 54.9 °F /  12.7 °C 53.2 °F /  11.8 °C 30.05in /  1017.5hPa WSW 8.7mph /  14km/h 12mph /  19.3km/h 94% 0.00in /  0mm 0 W/m2
20:29 54.9 °F /  12.7 °C 53.3 °F /  11.8 °C 30.05in /  1017.5hPa WSW 5.2mph /  8.4km/h 12mph /  19.3km/h 94% 0.00in /  0mm 0 W/m2
20:34 54.9 °F /  12.7 °C 53.2 °F /  11.8 °C 30.05in /  1017.5hPa WSW 6.4mph /  10.3km/h 14mph /  22.5km/h 94% 0.00in /  0mm 0 W/m2
20:39 55 °F /  12.8 °C 53.4 °F /  11.9 °C 30.05in /  1017.5hPa SW 6.8mph /  10.9km/h 13mph /  20.9km/h 94% 0.00in /  0mm 0 W/m2
20:44 55 °F /  12.8 °C 53.4 °F /  11.9 °C 30.05in /  1017.5hPa SW 6.2mph /  10km/h 14mph /  22.5km/h 94% 0.00in /  0mm 0 W/m2
20:49 55 °F /  12.8 °C 53.4 °F /  11.9 °C 30.05in /  1017.5hPa WSW 7.1mph /  11.4km/h 12mph /  19.3km/h 94% 0.00in /  0mm 0 W/m2
20:54 55 °F /  12.8 °C 53.4 °F /  11.9 °C 30.05in /  1017.5hPa WSW 6.6mph /  10.6km/h 10mph /  16.1km/h 94% 0.00in /  0mm 0 W/m2
20:59 55 °F /  12.8 °C 53.4 °F /  11.9 °C 30.05in /  1017.5hPa West 4.2mph /  6.8km/h 9mph /  14.5km/h 94% 0.00in /  0mm 0 W/m2
21:04 55 °F /  12.8 °C 53.4 °F /  11.9 °C 30.05in /  1017.5hPa WSW 5.2mph /  8.4km/h 11mph /  17.7km/h 94% 0.00in /  0mm 0 W/m2
21:09 55 °F /  12.8 °C 53.4 °F /  11.9 °C 30.05in /  1017.5hPa WSW 7.4mph /  11.9km/h 12mph /  19.3km/h 94% 0.00in /  0mm 0 W/m2
21:14 55 °F /  12.8 °C 53.4 °F /  11.9 °C 30.05in /  1017.5hPa WSW 6.4mph /  10.3km/h 12mph /  19.3km/h 94% 0.00in /  0mm 0 W/m2
21:19 55 °F /  12.8 °C 53.4 °F /  11.9 °C 30.05in /  1017.5hPa WSW 5.2mph /  8.4km/h 12mph /  19.3km/h 94% 0.00in /  0mm 0 W/m2
21:24 55.2 °F /  12.9 °C 53.6 °F /  12 °C 30.05in /  1017.5hPa WSW 8mph /  12.9km/h 13mph /  20.9km/h 94% 0.00in /  0mm 0 W/m2
21:29 55.2 °F /  12.9 °C 53.6 °F /  12 °C 30.05in /  1017.5hPa SW 7.9mph /  12.7km/h 14mph /  22.5km/h 94% 0.00in /  0mm 0 W/m2
21:34 55.2 °F /  12.9 °C 53.6 °F /  12 °C 30.05in /  1017.5hPa West 7.2mph /  11.6km/h 13mph /  20.9km/h 94% 0.00in /  0mm 0 W/m2
21:39 55.2 °F /  12.9 °C 53.5 °F /  11.9 °C 30.06in /  1017.8hPa WSW 7.4mph /  11.9km/h 13mph /  20.9km/h 93.8% 0.00in /  0mm 0 W/m2
21:44 55.3 °F /  12.9 °C 53.3 °F /  11.8 °C 30.05in /  1017.5hPa WSW 7.9mph /  12.7km/h 15mph /  24.1km/h 93% 0.00in /  0mm 0 W/m2
21:49 55.2 °F /  12.9 °C 53.2 °F /  11.8 °C 30.05in /  1017.5hPa WSW 6.4mph /  10.3km/h 13mph /  20.9km/h 93% 0.00in /  0mm 0 W/m2
21:54 55.3 °F /  12.9 °C 53.3 °F /  11.8 °C 30.05in /  1017.5hPa WSW 6.2mph /  10km/h 12mph /  19.3km/h 93% 0.00in /  0mm 0 W/m2
21:59 55.2 °F /  12.9 °C 53.2 °F /  11.8 °C 30.06in /  1017.8hPa WSW 8.4mph /  13.5km/h 13mph /  20.9km/h 93% 0.00in /  0mm 0 W/m2
22:04 55.2 °F /  12.9 °C 53.2 °F /  11.8 °C 30.06in /  1017.8hPa West 5.9mph /  9.5km/h 13mph /  20.9km/h 93% 0.00in /  0mm 0 W/m2
22:09 55.2 °F /  12.9 °C 53.2 °F /  11.8 °C 30.06in /  1017.8hPa West 5.8mph /  9.3km/h 12mph /  19.3km/h 93% 0.00in /  0mm 0 W/m2
22:13 55.2 °F /  12.9 °C 53.2 °F /  11.8 °C 30.06in /  1017.8hPa West 6.8mph /  10.9km/h 13mph /  20.9km/h 93% 0.00in /  0mm 0 W/m2
22:19 55.2 °F /  12.9 °C 53.2 °F /  11.8 °C 30.06in /  1017.8hPa West 6.2mph /  10km/h 13mph /  20.9km/h 93% 0.00in /  0mm 0 W/m2
22:24 55.2 °F /  12.9 °C 53.2 °F /  11.8 °C 30.06in /  1017.8hPa WSW 4.6mph /  7.4km/h 11mph /  17.7km/h 93% 0.00in /  0mm 0 W/m2
22:29 55.2 °F /  12.9 °C 52.9 °F /  11.6 °C 30.05in /  1017.5hPa WSW 4.2mph /  6.8km/h 11mph /  17.7km/h 92% 0.00in /  0mm 0 W/m2
22:34 55.2 °F /  12.9 °C 52.9 °F /  11.6 °C 30.05in /  1017.5hPa SW 6mph /  9.7km/h 12mph /  19.3km/h 92% 0.00in /  0mm 0 W/m2
22:39 55.3 °F /  12.9 °C 53 °F /  11.7 °C 30.06in /  1017.8hPa WSW 4.7mph /  7.6km/h 12mph /  19.3km/h 92% 0.00in /  0mm 0 W/m2
22:44 55.2 °F /  12.9 °C 52.9 °F /  11.6 °C 30.06in /  1017.8hPa SW 4.1mph /  6.6km/h 9mph /  14.5km/h 92% 0.00in /  0mm 0 W/m2
22:49 55.2 °F /  12.9 °C 52.9 °F /  11.6 °C 30.06in /  1017.8hPa WSW 4.8mph /  7.7km/h 8mph /  12.9km/h 92% 0.00in /  0mm 0 W/m2
22:54 55.2 °F /  12.9 °C 52.8 °F /  11.6 °C 30.06in /  1017.8hPa WSW 5.5mph /  8.9km/h 10mph /  16.1km/h 92% 0.00in /  0mm 0 W/m2
22:59 55 °F /  12.8 °C 52.7 °F /  11.5 °C 30.06in /  1017.8hPa SW 6.6mph /  10.6km/h 11mph /  17.7km/h 92% 0.00in /  0mm 0 W/m2
23:04 55 °F /  12.8 °C 52.7 °F /  11.5 °C 30.06in /  1017.8hPa WSW 5.7mph /  9.2km/h 12mph /  19.3km/h 92% 0.00in /  0mm 0 W/m2
23:09 55 °F /  12.8 °C 52.7 °F /  11.5 °C 30.06in /  1017.8hPa SW 5.8mph /  9.3km/h 10mph /  16.1km/h 92% 0.00in /  0mm 0 W/m2
23:14 54.9 °F /  12.7 °C 52.5 °F /  11.4 °C 30.06in /  1017.8hPa WSW 7.8mph /  12.6km/h 16mph /  25.7km/h 92% 0.00in /  0mm 0 W/m2
23:19 54.7 °F /  12.6 °C 52.3 °F /  11.3 °C 30.06in /  1017.8hPa SW 5.7mph /  9.2km/h 11mph /  17.7km/h 92% 0.00in /  0mm 0 W/m2
23:24 54.7 °F /  12.6 °C 52.3 °F /  11.3 °C 30.06in /  1017.8hPa SSW 6.4mph /  10.3km/h 13mph /  20.9km/h 92% 0.00in /  0mm 0 W/m2
23:29 54.6 °F /  12.6 °C 52.5 °F /  11.4 °C 30.06in /  1017.8hPa SW 5.2mph /  8.4km/h 10mph /  16.1km/h 92.8% 0.00in /  0mm 0 W/m2
23:34 54.6 °F /  12.6 °C 52.6 °F /  11.4 °C 30.06in /  1017.8hPa WSW 6.2mph /  10km/h 10mph /  16.1km/h 93% 0.00in /  0mm 0 W/m2
23:39 54.5 °F /  12.5 °C 52.5 °F /  11.4 °C 30.06in /  1017.8hPa SW 6.8mph /  10.9km/h 11mph /  17.7km/h 93% 0.00in /  0mm 0 W/m2
23:44 54.5 °F /  12.5 °C 52.5 °F /  11.4 °C 30.06in /  1017.8hPa SW 8.2mph /  13.2km/h 12mph /  19.3km/h 93% 0.00in /  0mm 0 W/m2
23:49 54.5 °F /  12.5 °C 52.5 °F /  11.4 °C 30.06in /  1017.8hPa SW 5.4mph /  8.7km/h 12mph /  19.3km/h 93% 0.00in /  0mm 0 W/m2
23:54 54.5 °F /  12.5 °C 52.5 °F /  11.4 °C 30.07in /  1018.2hPa WSW 6.3mph /  10.1km/h 10mph /  16.1km/h 93% 0.00in /  0mm 0 W/m2
23:59 54.3 °F /  12.4 °C 52.3 °F /  11.3 °C 30.07in /  1018.2hPa WSW 3.7mph /  6km/h 8mph /  12.9km/h 93% 0.00in /  0mm 0 W/m2
Bath Spa Weather
Compliments of Weather Underground - 2 mb